Pagrindinis puslapis
METAR-TAF:

METAR-TAF

Oro uostai :

Ordu, Turkija

platuma: 40-58-00N, ilguma: 38-04-48E, Aukštis: 5 m

Dabartinis oras

Ataskaita buvo paskelbta 41 minutes, ne 13:50 UTC
Vėjas 9 kt iš Rytų/Šiaurės Rytų
Temperatūra 16°C
Drėgmė 82%
Slėgis 1011 hPa
Matomumas 10 km arba daugiau
nėra debesų žemiau 1500 m ir nėra kamuolinių lietaus debesų

METAR: LTCB 121350Z 07009KT CAVOK 16/13 Q1011

Laikas: 17:31 (14:31 UTC)

Prognozė

Ataskaita buvo paskelbta 3 valandos ir 51 minutes, ne 10:40 UTC
Prognozė galioja nuo 12 metu 12 UTC su 12 metu 21 UTC
Vėjas 7 kt iš Rytų
Matomumas 10 km arba daugiau
nėra debesų žemiau 1500 m ir nėra kamuolinių lietaus debesų

TAF: LTCB 121040Z 1212/1221 08007KT CAVOK

Orai ataskaitas ir orų prognozės (METAR, TAF).

turimą stotys yra geltonos ir raudonos taškus žemėlapyje.

Perkelti pele per norėdami pamatyti stoties vardą.

Tada spustelėkite, norėdami matyti oro stebėjimo ir prognozės.

Norėdami pakeisti žemėlapį: spustelėkite ant žalios mygtukų su juodo kryžiaus žemyn,; žalią mygtuką su brūkšneliu, jei norite nutolinti; arba žalių rodyklių gretimoms žemėlapius.


METAR-TAF: